sensor_id;sensor_type;location;lat;lon;timestamp;P1;durP1;ratioP1;P2;durP2;ratioP2
70169;SDS011;57543;45.442;9.212;2022-10-16T00:00:39;72.70;;;34.88;;
70169;SDS011;57543;45.442;9.212;2022-10-16T00:03:44;69.72;;;34.58;;
70169;SDS011;57543;45.442;9.212;2022-10-16T00:06:48;63.38;;;31.88;;
70169;SDS011;57543;45.442;9.212;2022-10-16T00:09:52;73.23;;;35.03;;
70169;SDS011;57543;45.442;9.212;2022-10-16T00:12:55;63.88;;;32.22;;
70169;SDS011;57543;45.442;9.212;2022-10-16T00:15:59;66.38;;;32.78;;
70169;SDS011;57543;45.442;9.212;2022-10-16T00:19:04;63.78;;;31.85;;
70169;SDS011;57543;45.442;9.212;2022-10-16T00:22:09;67.30;;;32.70;;
70169;SDS011;57543;45.442;9.212;2022-10-16T00:25:28;62.97;;;31.33;;
70169;SDS011;57543;45.442;9.212;2022-10-16T00:28:31;63.80;;;30.85;;
70169;SDS011;57543;45.442;9.212;2022-10-16T00:31:35;67.13;;;33.83;;
70169;SDS011;57543;45.442;9.212;2022-10-16T00:34:39;63.78;;;31.60;;
70169;SDS011;57543;45.442;9.212;2022-10-16T00:37:43;63.33;;;30.65;;
70169;SDS011;57543;45.442;9.212;2022-10-16T00:40:47;58.83;;;30.73;;
70169;SDS011;57543;45.442;9.212;2022-10-16T00:43:54;62.08;;;31.55;;
70169;SDS011;57543;45.442;9.212;2022-10-16T00:46:59;59.92;;;30.42;;
70169;SDS011;57543;45.442;9.212;2022-10-16T00:50:08;62.25;;;31.98;;
70169;SDS011;57543;45.442;9.212;2022-10-16T00:53:16;59.60;;;30.90;;
70169;SDS011;57543;45.442;9.212;2022-10-16T00:56:20;64.43;;;30.77;;
70169;SDS011;57543;45.442;9.212;2022-10-16T00:59:25;61.33;;;31.27;;
70169;SDS011;57543;45.442;9.212;2022-10-16T01:02:31;60.22;;;29.73;;
70169;SDS011;57543;45.442;9.212;2022-10-16T01:06:18;61.20;;;29.67;;
70169;SDS011;57543;45.442;9.212;2022-10-16T01:09:05;59.85;;;29.55;;
70169;SDS011;57543;45.442;9.212;2022-10-16T01:12:36;55.33;;;27.63;;
70169;SDS011;57543;45.442;9.212;2022-10-16T01:16:02;55.97;;;28.13;;
70169;SDS011;57543;45.442;9.212;2022-10-16T01:19:13;52.20;;;26.92;;
70169;SDS011;57543;45.442;9.212;2022-10-16T01:22:31;55.08;;;28.73;;
70169;SDS011;57543;45.442;9.212;2022-10-16T01:29:15;55.57;;;28.80;;
70169;SDS011;57543;45.442;9.212;2022-10-16T01:32:48;51.00;;;26.98;;
70169;SDS011;57543;45.442;9.212;2022-10-16T01:35:58;54.42;;;27.67;;
70169;SDS011;57543;45.442;9.212;2022-10-16T01:39:16;50.35;;;26.73;;
70169;SDS011;57543;45.442;9.212;2022-10-16T01:42:26;50.90;;;27.33;;
70169;SDS011;57543;45.442;9.212;2022-10-16T01:45:34;53.00;;;26.93;;
70169;SDS011;57543;45.442;9.212;2022-10-16T01:48:39;55.05;;;28.05;;
70169;SDS011;57543;45.442;9.212;2022-10-16T01:51:44;53.58;;;28.13;;
70169;SDS011;57543;45.442;9.212;2022-10-16T01:54:50;58.65;;;28.20;;
70169;SDS011;57543;45.442;9.212;2022-10-16T01:57:57;58.95;;;30.25;;
70169;SDS011;57543;45.442;9.212;2022-10-16T02:01:03;56.67;;;29.60;;
70169;SDS011;57543;45.442;9.212;2022-10-16T02:04:13;52.10;;;28.35;;
70169;SDS011;57543;45.442;9.212;2022-10-16T02:07:21;55.22;;;28.38;;
70169;SDS011;57543;45.442;9.212;2022-10-16T02:10:25;58.08;;;29.02;;
70169;SDS011;57543;45.442;9.212;2022-10-16T02:13:47;52.95;;;26.98;;
70169;SDS011;57543;45.442;9.212;2022-10-16T02:16:55;57.40;;;27.63;;
70169;SDS011;57543;45.442;9.212;2022-10-16T02:19:59;55.03;;;29.17;;
70169;SDS011;57543;45.442;9.212;2022-10-16T02:23:03;54.30;;;27.63;;
70169;SDS011;57543;45.442;9.212;2022-10-16T02:26:07;56.22;;;28.15;;
70169;SDS011;57543;45.442;9.212;2022-10-16T02:29:15;59.10;;;28.80;;
70169;SDS011;57543;45.442;9.212;2022-10-16T02:32:21;56.20;;;28.43;;
70169;SDS011;57543;45.442;9.212;2022-10-16T02:35:27;59.00;;;29.13;;
70169;SDS011;57543;45.442;9.212;2022-10-16T02:38:35;55.25;;;28.00;;
70169;SDS011;57543;45.442;9.212;2022-10-16T02:41:40;52.20;;;26.38;;
70169;SDS011;57543;45.442;9.212;2022-10-16T02:44:44;55.05;;;27.75;;
70169;SDS011;57543;45.442;9.212;2022-10-16T02:47:47;56.50;;;28.60;;
70169;SDS011;57543;45.442;9.212;2022-10-16T02:50:52;57.22;;;28.13;;
70169;SDS011;57543;45.442;9.212;2022-10-16T02:53:56;53.47;;;27.92;;
70169;SDS011;57543;45.442;9.212;2022-10-16T02:57:00;59.25;;;28.95;;
70169;SDS011;57543;45.442;9.212;2022-10-16T03:00:04;51.97;;;26.88;;
70169;SDS011;57543;45.442;9.212;2022-10-16T03:03:08;54.07;;;28.47;;
70169;SDS011;57543;45.442;9.212;2022-10-16T03:06:12;54.47;;;27.85;;
70169;SDS011;57543;45.442;9.212;2022-10-16T03:09:15;58.13;;;30.02;;
70169;SDS011;57543;45.442;9.212;2022-10-16T03:12:19;51.65;;;27.90;;
70169;SDS011;57543;45.442;9.212;2022-10-16T03:15:22;51.65;;;26.98;;
70169;SDS011;57543;45.442;9.212;2022-10-16T03:18:26;51.50;;;26.63;;
70169;SDS011;57543;45.442;9.212;2022-10-16T03:21:30;54.28;;;27.35;;
70169;SDS011;57543;45.442;9.212;2022-10-16T03:24:33;51.08;;;25.77;;
70169;SDS011;57543;45.442;9.212;2022-10-16T03:27:37;52.30;;;27.17;;
70169;SDS011;57543;45.442;9.212;2022-10-16T03:30:40;52.00;;;27.67;;
70169;SDS011;57543;45.442;9.212;2022-10-16T03:33:44;47.63;;;24.57;;
70169;SDS011;57543;45.442;9.212;2022-10-16T03:36:47;52.25;;;25.35;;
70169;SDS011;57543;45.442;9.212;2022-10-16T03:39:51;47.65;;;25.50;;
70169;SDS011;57543;45.442;9.212;2022-10-16T03:42:55;45.97;;;23.98;;
70169;SDS011;57543;45.442;9.212;2022-10-16T03:46:00;47.17;;;25.20;;
70169;SDS011;57543;45.442;9.212;2022-10-16T03:49:04;48.23;;;25.80;;
70169;SDS011;57543;45.442;9.212;2022-10-16T03:52:08;50.42;;;25.27;;
70169;SDS011;57543;45.442;9.212;2022-10-16T03:55:12;50.20;;;25.85;;
70169;SDS011;57543;45.442;9.212;2022-10-16T03:58:16;50.78;;;25.42;;
70169;SDS011;57543;45.442;9.212;2022-10-16T04:01:20;47.47;;;23.98;;
70169;SDS011;57543;45.442;9.212;2022-10-16T04:04:23;48.13;;;24.47;;
70169;SDS011;57543;45.442;9.212;2022-10-16T04:07:28;48.25;;;25.25;;
70169;SDS011;57543;45.442;9.212;2022-10-16T04:10:32;49.78;;;26.00;;
70169;SDS011;57543;45.442;9.212;2022-10-16T04:13:36;47.70;;;25.88;;
70169;SDS011;57543;45.442;9.212;2022-10-16T04:16:39;51.20;;;26.42;;
70169;SDS011;57543;45.442;9.212;2022-10-16T04:19:43;51.90;;;26.23;;
70169;SDS011;57543;45.442;9.212;2022-10-16T04:22:47;48.88;;;25.48;;
70169;SDS011;57543;45.442;9.212;2022-10-16T04:25:51;52.17;;;27.15;;
70169;SDS011;57543;45.442;9.212;2022-10-16T04:28:55;52.35;;;26.92;;
70169;SDS011;57543;45.442;9.212;2022-10-16T04:31:59;47.83;;;25.58;;
70169;SDS011;57543;45.442;9.212;2022-10-16T04:35:02;50.53;;;26.43;;
70169;SDS011;57543;45.442;9.212;2022-10-16T04:38:06;50.47;;;25.77;;
70169;SDS011;57543;45.442;9.212;2022-10-16T04:41:10;47.45;;;25.55;;
70169;SDS011;57543;45.442;9.212;2022-10-16T04:44:14;48.88;;;25.63;;
70169;SDS011;57543;45.442;9.212;2022-10-16T04:47:17;46.65;;;24.38;;
70169;SDS011;57543;45.442;9.212;2022-10-16T04:50:21;47.00;;;25.00;;
70169;SDS011;57543;45.442;9.212;2022-10-16T04:53:41;49.08;;;25.30;;
70169;SDS011;57543;45.442;9.212;2022-10-16T04:56:45;47.53;;;25.10;;
70169;SDS011;57543;45.442;9.212;2022-10-16T04:59:54;48.35;;;24.13;;
70169;SDS011;57543;45.442;9.212;2022-10-16T05:02:58;46.47;;;24.92;;
70169;SDS011;57543;45.442;9.212;2022-10-16T05:06:04;46.20;;;25.47;;
70169;SDS011;57543;45.442;9.212;2022-10-16T05:09:09;44.00;;;24.42;;
70169;SDS011;57543;45.442;9.212;2022-10-16T05:12:12;47.88;;;24.95;;
70169;SDS011;57543;45.442;9.212;2022-10-16T05:15:17;43.55;;;24.45;;
70169;SDS011;57543;45.442;9.212;2022-10-16T05:18:21;48.65;;;25.88;;
70169;SDS011;57543;45.442;9.212;2022-10-16T05:21:24;47.60;;;25.33;;
70169;SDS011;57543;45.442;9.212;2022-10-16T05:24:28;45.28;;;23.90;;
70169;SDS011;57543;45.442;9.212;2022-10-16T05:27:32;48.60;;;25.15;;
70169;SDS011;57543;45.442;9.212;2022-10-16T05:30:37;44.00;;;23.00;;
70169;SDS011;57543;45.442;9.212;2022-10-16T05:33:40;46.45;;;24.33;;
70169;SDS011;57543;45.442;9.212;2022-10-16T05:36:44;47.17;;;23.77;;
70169;SDS011;57543;45.442;9.212;2022-10-16T05:39:48;44.75;;;22.92;;
70169;SDS011;57543;45.442;9.212;2022-10-16T05:42:54;44.30;;;23.33;;
70169;SDS011;57543;45.442;9.212;2022-10-16T05:46:05;42.25;;;23.13;;
70169;SDS011;57543;45.442;9.212;2022-10-16T05:49:09;44.45;;;22.52;;
70169;SDS011;57543;45.442;9.212;2022-10-16T05:52:13;42.90;;;23.67;;
70169;SDS011;57543;45.442;9.212;2022-10-16T05:55:17;44.60;;;23.05;;
70169;SDS011;57543;45.442;9.212;2022-10-16T05:58:21;43.85;;;24.02;;
70169;SDS011;57543;45.442;9.212;2022-10-16T06:01:25;44.10;;;23.20;;
70169;SDS011;57543;45.442;9.212;2022-10-16T06:04:29;43.53;;;22.40;;
70169;SDS011;57543;45.442;9.212;2022-10-16T06:07:36;38.40;;;20.67;;
70169;SDS011;57543;45.442;9.212;2022-10-16T06:10:39;43.10;;;21.65;;
70169;SDS011;57543;45.442;9.212;2022-10-16T06:13:43;42.35;;;22.98;;
70169;SDS011;57543;45.442;9.212;2022-10-16T06:16:49;43.60;;;23.02;;
70169;SDS011;57543;45.442;9.212;2022-10-16T06:19:53;39.25;;;22.00;;
70169;SDS011;57543;45.442;9.212;2022-10-16T06:22:57;42.80;;;22.17;;
70169;SDS011;57543;45.442;9.212;2022-10-16T06:26:04;42.60;;;23.20;;
70169;SDS011;57543;45.442;9.212;2022-10-16T06:29:12;44.08;;;21.45;;
70169;SDS011;57543;45.442;9.212;2022-10-16T06:32:16;37.70;;;20.90;;
70169;SDS011;57543;45.442;9.212;2022-10-16T06:35:20;39.65;;;22.15;;
70169;SDS011;57543;45.442;9.212;2022-10-16T06:38:24;37.10;;;20.50;;
70169;SDS011;57543;45.442;9.212;2022-10-16T06:41:28;37.17;;;20.48;;
70169;SDS011;57543;45.442;9.212;2022-10-16T06:44:40;36.72;;;20.58;;
70169;SDS011;57543;45.442;9.212;2022-10-16T06:47:43;40.95;;;21.80;;
70169;SDS011;57543;45.442;9.212;2022-10-16T06:54:03;39.93;;;22.07;;
70169;SDS011;57543;45.442;9.212;2022-10-16T06:57:06;41.35;;;22.52;;
70169;SDS011;57543;45.442;9.212;2022-10-16T07:00:11;41.58;;;22.73;;
70169;SDS011;57543;45.442;9.212;2022-10-16T07:03:15;40.28;;;21.58;;
70169;SDS011;57543;45.442;9.212;2022-10-16T07:06:20;37.63;;;20.70;;
70169;SDS011;57543;45.442;9.212;2022-10-16T07:09:25;38.67;;;20.40;;
70169;SDS011;57543;45.442;9.212;2022-10-16T07:12:29;35.38;;;19.55;;
70169;SDS011;57543;45.442;9.212;2022-10-16T07:15:32;35.30;;;18.88;;
70169;SDS011;57543;45.442;9.212;2022-10-16T07:18:36;36.45;;;20.42;;
70169;SDS011;57543;45.442;9.212;2022-10-16T07:21:42;38.28;;;19.48;;
70169;SDS011;57543;45.442;9.212;2022-10-16T07:24:45;34.47;;;18.20;;
70169;SDS011;57543;45.442;9.212;2022-10-16T07:27:49;36.55;;;18.77;;
70169;SDS011;57543;45.442;9.212;2022-10-16T07:30:53;35.42;;;19.65;;
70169;SDS011;57543;45.442;9.212;2022-10-16T07:33:57;38.13;;;20.45;;
70169;SDS011;57543;45.442;9.212;2022-10-16T07:37:02;37.03;;;20.00;;
70169;SDS011;57543;45.442;9.212;2022-10-16T07:40:06;32.80;;;19.20;;
70169;SDS011;57543;45.442;9.212;2022-10-16T07:43:10;36.65;;;19.30;;
70169;SDS011;57543;45.442;9.212;2022-10-16T07:46:14;35.50;;;19.95;;
70169;SDS011;57543;45.442;9.212;2022-10-16T07:49:18;37.05;;;20.30;;
70169;SDS011;57543;45.442;9.212;2022-10-16T07:52:22;34.47;;;18.95;;
70169;SDS011;57543;45.442;9.212;2022-10-16T07:55:26;34.83;;;18.07;;
70169;SDS011;57543;45.442;9.212;2022-10-16T07:58:29;35.00;;;19.13;;
70169;SDS011;57543;45.442;9.212;2022-10-16T08:01:33;35.65;;;19.20;;
70169;SDS011;57543;45.442;9.212;2022-10-16T08:04:37;34.90;;;19.05;;
70169;SDS011;57543;45.442;9.212;2022-10-16T08:07:41;44.80;;;23.33;;
70169;SDS011;57543;45.442;9.212;2022-10-16T08:10:45;41.53;;;22.13;;
70169;SDS011;57543;45.442;9.212;2022-10-16T08:13:49;46.65;;;23.95;;
70169;SDS011;57543;45.442;9.212;2022-10-16T08:16:53;46.40;;;22.83;;
70169;SDS011;57543;45.442;9.212;2022-10-16T08:19:57;47.53;;;24.58;;
70169;SDS011;57543;45.442;9.212;2022-10-16T08:23:01;50.65;;;25.55;;
70169;SDS011;57543;45.442;9.212;2022-10-16T08:26:05;47.97;;;22.97;;
70169;SDS011;57543;45.442;9.212;2022-10-16T08:29:09;50.85;;;24.70;;
70169;SDS011;57543;45.442;9.212;2022-10-16T08:32:13;46.42;;;23.92;;
70169;SDS011;57543;45.442;9.212;2022-10-16T08:35:17;53.03;;;26.23;;
70169;SDS011;57543;45.442;9.212;2022-10-16T08:38:21;52.15;;;25.13;;
70169;SDS011;57543;45.442;9.212;2022-10-16T08:41:39;47.43;;;22.87;;
70169;SDS011;57543;45.442;9.212;2022-10-16T08:44:58;55.35;;;27.30;;
70169;SDS011;57543;45.442;9.212;2022-10-16T08:48:08;50.88;;;25.77;;
70169;SDS011;57543;45.442;9.212;2022-10-16T08:51:35;47.15;;;23.15;;
70169;SDS011;57543;45.442;9.212;2022-10-16T08:54:41;59.22;;;30.35;;
70169;SDS011;57543;45.442;9.212;2022-10-16T08:57:48;56.77;;;28.87;;
70169;SDS011;57543;45.442;9.212;2022-10-16T09:00:54;57.75;;;28.67;;
70169;SDS011;57543;45.442;9.212;2022-10-16T09:07:40;57.72;;;27.80;;
70169;SDS011;57543;45.442;9.212;2022-10-16T09:17:37;48.05;;;24.27;;
70169;SDS011;57543;45.442;9.212;2022-10-16T09:20:56;56.28;;;27.85;;
70169;SDS011;57543;45.442;9.212;2022-10-16T09:27:19;66.10;;;33.03;;
70169;SDS011;57543;45.442;9.212;2022-10-16T09:30:23;64.93;;;31.03;;
70169;SDS011;57543;45.442;9.212;2022-10-16T09:33:36;65.47;;;30.05;;
70169;SDS011;57543;45.442;9.212;2022-10-16T09:36:43;58.53;;;28.05;;
70169;SDS011;57543;45.442;9.212;2022-10-16T09:39:50;53.75;;;25.17;;
70169;SDS011;57543;45.442;9.212;2022-10-16T09:43:03;53.17;;;25.38;;
70169;SDS011;57543;45.442;9.212;2022-10-16T09:49:33;57.42;;;27.10;;
70169;SDS011;57543;45.442;9.212;2022-10-16T09:52:37;68.13;;;31.92;;
70169;SDS011;57543;45.442;9.212;2022-10-16T09:55:47;58.10;;;28.40;;
70169;SDS011;57543;45.442;9.212;2022-10-16T09:58:56;55.67;;;27.25;;
70169;SDS011;57543;45.442;9.212;2022-10-16T10:02:04;54.83;;;27.70;;
70169;SDS011;57543;45.442;9.212;2022-10-16T10:05:27;61.97;;;28.27;;
70169;SDS011;57543;45.442;9.212;2022-10-16T10:08:32;59.60;;;28.10;;
70169;SDS011;57543;45.442;9.212;2022-10-16T10:11:37;55.28;;;28.05;;
70169;SDS011;57543;45.442;9.212;2022-10-16T10:14:45;60.55;;;28.42;;
70169;SDS011;57543;45.442;9.212;2022-10-16T10:17:54;57.13;;;27.90;;
70169;SDS011;57543;45.442;9.212;2022-10-16T10:21:00;58.03;;;27.48;;
70169;SDS011;57543;45.442;9.212;2022-10-16T10:24:09;59.00;;;29.55;;
70169;SDS011;57543;45.442;9.212;2022-10-16T10:27:15;62.55;;;28.55;;
70169;SDS011;57543;45.442;9.212;2022-10-16T10:33:34;60.77;;;29.30;;
70169;SDS011;57543;45.442;9.212;2022-10-16T10:36:59;60.40;;;28.58;;
70169;SDS011;57543;45.442;9.212;2022-10-16T10:56:57;64.10;;;31.88;;
70169;SDS011;57543;45.442;9.212;2022-10-16T11:00:28;73.53;;;33.60;;
70169;SDS011;57543;45.442;9.212;2022-10-16T11:06:57;66.47;;;32.43;;
70169;SDS011;57543;45.442;9.212;2022-10-16T11:10:09;60.80;;;29.08;;
70169;SDS011;57543;45.442;9.212;2022-10-16T11:13:21;71.72;;;34.83;;
70169;SDS011;57543;45.442;9.212;2022-10-16T11:16:32;70.63;;;34.50;;
70169;SDS011;57543;45.442;9.212;2022-10-16T11:19:51;76.72;;;37.08;;
70169;SDS011;57543;45.442;9.212;2022-10-16T11:23:02;62.37;;;31.23;;
70169;SDS011;57543;45.442;9.212;2022-10-16T11:26:16;55.45;;;27.80;;
70169;SDS011;57543;45.442;9.212;2022-10-16T11:29:25;64.00;;;31.80;;
70169;SDS011;57543;45.442;9.212;2022-10-16T11:32:34;54.17;;;29.70;;
70169;SDS011;57543;45.442;9.212;2022-10-16T11:45:36;63.90;;;32.83;;
70169;SDS011;57543;45.442;9.212;2022-10-16T11:55:37;60.27;;;30.37;;
70169;SDS011;57543;45.442;9.212;2022-10-16T11:59:00;64.20;;;30.25;;
70169;SDS011;57543;45.442;9.212;2022-10-16T12:02:26;54.92;;;27.60;;
70169;SDS011;57543;45.442;9.212;2022-10-16T12:08:59;73.13;;;35.10;;
70169;SDS011;57543;45.442;9.212;2022-10-16T12:12:04;60.93;;;30.70;;
70169;SDS011;57543;45.442;9.212;2022-10-16T12:15:30;72.05;;;34.90;;
70169;SDS011;57543;45.442;9.212;2022-10-16T12:18:36;64.03;;;30.92;;
70169;SDS011;57543;45.442;9.212;2022-10-16T12:21:40;58.35;;;30.00;;
70169;SDS011;57543;45.442;9.212;2022-10-16T12:24:44;60.60;;;30.45;;
70169;SDS011;57543;45.442;9.212;2022-10-16T12:27:55;51.67;;;27.40;;
70169;SDS011;57543;45.442;9.212;2022-10-16T12:31:19;52.17;;;27.48;;
70169;SDS011;57543;45.442;9.212;2022-10-16T12:34:27;57.20;;;30.88;;
70169;SDS011;57543;45.442;9.212;2022-10-16T12:37:40;56.88;;;30.50;;
70169;SDS011;57543;45.442;9.212;2022-10-16T12:40:44;63.55;;;32.17;;
70169;SDS011;57543;45.442;9.212;2022-10-16T12:43:51;52.87;;;27.53;;
70169;SDS011;57543;45.442;9.212;2022-10-16T12:46:55;56.60;;;29.42;;
70169;SDS011;57543;45.442;9.212;2022-10-16T12:49:59;57.75;;;27.60;;
70169;SDS011;57543;45.442;9.212;2022-10-16T12:53:03;55.53;;;28.90;;
70169;SDS011;57543;45.442;9.212;2022-10-16T12:56:22;58.90;;;30.63;;
70169;SDS011;57543;45.442;9.212;2022-10-16T13:03:04;55.90;;;28.25;;
70169;SDS011;57543;45.442;9.212;2022-10-16T13:09:40;58.75;;;30.85;;
70169;SDS011;57543;45.442;9.212;2022-10-16T13:16:22;54.93;;;28.43;;
70169;SDS011;57543;45.442;9.212;2022-10-16T13:19:54;54.30;;;27.70;;
70169;SDS011;57543;45.442;9.212;2022-10-16T13:23:29;51.38;;;26.48;;
70169;SDS011;57543;45.442;9.212;2022-10-16T13:29:52;52.45;;;29.05;;
70169;SDS011;57543;45.442;9.212;2022-10-16T13:33:01;50.93;;;26.97;;
70169;SDS011;57543;45.442;9.212;2022-10-16T13:36:17;54.67;;;30.30;;
70169;SDS011;57543;45.442;9.212;2022-10-16T13:39:24;50.75;;;28.08;;
70169;SDS011;57543;45.442;9.212;2022-10-16T13:42:32;47.72;;;26.90;;
70169;SDS011;57543;45.442;9.212;2022-10-16T13:45:36;54.53;;;28.63;;
70169;SDS011;57543;45.442;9.212;2022-10-16T13:48:40;61.57;;;32.53;;
70169;SDS011;57543;45.442;9.212;2022-10-16T13:51:55;48.08;;;26.15;;
70169;SDS011;57543;45.442;9.212;2022-10-16T13:55:00;55.03;;;29.30;;
70169;SDS011;57543;45.442;9.212;2022-10-16T13:58:08;49.67;;;27.40;;
70169;SDS011;57543;45.442;9.212;2022-10-16T14:01:19;53.58;;;29.52;;
70169;SDS011;57543;45.442;9.212;2022-10-16T14:04:27;49.47;;;27.30;;
70169;SDS011;57543;45.442;9.212;2022-10-16T14:07:35;46.88;;;25.92;;
70169;SDS011;57543;45.442;9.212;2022-10-16T14:10:39;48.03;;;26.42;;
70169;SDS011;57543;45.442;9.212;2022-10-16T14:13:44;44.97;;;25.10;;
70169;SDS011;57543;45.442;9.212;2022-10-16T14:16:49;60.85;;;31.75;;
70169;SDS011;57543;45.442;9.212;2022-10-16T14:19:54;49.07;;;27.60;;
70169;SDS011;57543;45.442;9.212;2022-10-16T14:26:06;54.00;;;28.95;;
70169;SDS011;57543;45.442;9.212;2022-10-16T14:29:18;49.13;;;25.90;;
70169;SDS011;57543;45.442;9.212;2022-10-16T14:32:25;47.13;;;25.98;;
70169;SDS011;57543;45.442;9.212;2022-10-16T14:38:38;48.92;;;24.65;;
70169;SDS011;57543;45.442;9.212;2022-10-16T14:41:44;52.00;;;26.00;;
70169;SDS011;57543;45.442;9.212;2022-10-16T14:44:50;52.90;;;28.42;;
70169;SDS011;57543;45.442;9.212;2022-10-16T14:48:06;46.05;;;24.48;;
70169;SDS011;57543;45.442;9.212;2022-10-16T14:51:21;51.33;;;27.17;;
70169;SDS011;57543;45.442;9.212;2022-10-16T14:54:25;47.45;;;25.83;;
70169;SDS011;57543;45.442;9.212;2022-10-16T14:57:29;46.65;;;24.40;;
70169;SDS011;57543;45.442;9.212;2022-10-16T15:00:37;40.10;;;21.90;;
70169;SDS011;57543;45.442;9.212;2022-10-16T15:03:40;41.72;;;24.67;;
70169;SDS011;57543;45.442;9.212;2022-10-16T15:06:44;48.37;;;24.07;;
70169;SDS011;57543;45.442;9.212;2022-10-16T15:09:48;48.65;;;25.83;;
70169;SDS011;57543;45.442;9.212;2022-10-16T15:12:52;49.47;;;24.92;;
70169;SDS011;57543;45.442;9.212;2022-10-16T15:15:56;53.72;;;29.30;;
70169;SDS011;57543;45.442;9.212;2022-10-16T15:19:01;49.35;;;25.38;;
70169;SDS011;57543;45.442;9.212;2022-10-16T15:22:05;44.37;;;24.20;;
70169;SDS011;57543;45.442;9.212;2022-10-16T15:25:32;49.10;;;26.02;;
70169;SDS011;57543;45.442;9.212;2022-10-16T15:28:50;48.00;;;25.30;;
70169;SDS011;57543;45.442;9.212;2022-10-16T15:31:54;45.33;;;24.67;;
70169;SDS011;57543;45.442;9.212;2022-10-16T15:34:57;43.05;;;23.30;;
70169;SDS011;57543;45.442;9.212;2022-10-16T15:38:01;55.33;;;30.33;;
70169;SDS011;57543;45.442;9.212;2022-10-16T15:41:05;47.88;;;25.35;;
70169;SDS011;57543;45.442;9.212;2022-10-16T15:44:08;50.50;;;26.95;;
70169;SDS011;57543;45.442;9.212;2022-10-16T15:47:12;50.97;;;26.40;;
70169;SDS011;57543;45.442;9.212;2022-10-16T15:50:16;46.28;;;24.60;;
70169;SDS011;57543;45.442;9.212;2022-10-16T15:53:20;50.53;;;25.80;;
70169;SDS011;57543;45.442;9.212;2022-10-16T15:56:24;48.88;;;26.17;;
70169;SDS011;57543;45.442;9.212;2022-10-16T15:59:28;51.33;;;27.50;;
70169;SDS011;57543;45.442;9.212;2022-10-16T16:02:32;46.63;;;26.30;;
70169;SDS011;57543;45.442;9.212;2022-10-16T16:05:37;46.38;;;24.60;;
70169;SDS011;57543;45.442;9.212;2022-10-16T16:08:42;50.07;;;26.07;;
70169;SDS011;57543;45.442;9.212;2022-10-16T16:11:46;48.40;;;26.40;;
70169;SDS011;57543;45.442;9.212;2022-10-16T16:14:50;46.13;;;24.55;;
70169;SDS011;57543;45.442;9.212;2022-10-16T16:17:54;46.97;;;25.45;;
70169;SDS011;57543;45.442;9.212;2022-10-16T16:20:57;47.13;;;25.33;;
70169;SDS011;57543;45.442;9.212;2022-10-16T16:24:01;48.43;;;26.20;;
70169;SDS011;57543;45.442;9.212;2022-10-16T16:27:11;43.67;;;24.58;;
70169;SDS011;57543;45.442;9.212;2022-10-16T16:30:14;45.70;;;26.05;;
70169;SDS011;57543;45.442;9.212;2022-10-16T16:33:18;51.72;;;26.65;;
70169;SDS011;57543;45.442;9.212;2022-10-16T16:36:21;42.45;;;23.42;;
70169;SDS011;57543;45.442;9.212;2022-10-16T16:39:25;45.93;;;25.67;;
70169;SDS011;57543;45.442;9.212;2022-10-16T16:42:28;45.47;;;25.00;;
70169;SDS011;57543;45.442;9.212;2022-10-16T16:45:35;49.70;;;25.85;;
70169;SDS011;57543;45.442;9.212;2022-10-16T16:48:39;49.50;;;26.65;;
70169;SDS011;57543;45.442;9.212;2022-10-16T16:51:43;47.80;;;26.27;;
70169;SDS011;57543;45.442;9.212;2022-10-16T16:54:47;47.47;;;25.23;;
70169;SDS011;57543;45.442;9.212;2022-10-16T16:57:55;43.10;;;24.05;;
70169;SDS011;57543;45.442;9.212;2022-10-16T17:01:00;49.58;;;26.67;;
70169;SDS011;57543;45.442;9.212;2022-10-16T17:04:05;47.38;;;26.05;;
70169;SDS011;57543;45.442;9.212;2022-10-16T17:07:09;46.83;;;25.23;;
70169;SDS011;57543;45.442;9.212;2022-10-16T17:10:12;48.93;;;26.63;;
70169;SDS011;57543;45.442;9.212;2022-10-16T17:13:15;47.20;;;26.42;;
70169;SDS011;57543;45.442;9.212;2022-10-16T17:16:21;48.95;;;27.02;;
70169;SDS011;57543;45.442;9.212;2022-10-16T17:19:26;51.40;;;27.70;;
70169;SDS011;57543;45.442;9.212;2022-10-16T17:22:29;54.85;;;28.42;;
70169;SDS011;57543;45.442;9.212;2022-10-16T17:25:40;48.10;;;25.63;;
70169;SDS011;57543;45.442;9.212;2022-10-16T17:28:44;51.47;;;26.92;;
70169;SDS011;57543;45.442;9.212;2022-10-16T17:31:48;51.30;;;27.10;;
70169;SDS011;57543;45.442;9.212;2022-10-16T17:34:52;47.75;;;24.80;;
70169;SDS011;57543;45.442;9.212;2022-10-16T17:37:56;47.90;;;25.17;;
70169;SDS011;57543;45.442;9.212;2022-10-16T17:41:08;47.63;;;26.57;;
70169;SDS011;57543;45.442;9.212;2022-10-16T17:44:16;55.20;;;29.58;;
70169;SDS011;57543;45.442;9.212;2022-10-16T17:47:22;53.42;;;27.90;;
70169;SDS011;57543;45.442;9.212;2022-10-16T17:50:26;57.50;;;29.38;;
70169;SDS011;57543;45.442;9.212;2022-10-16T17:53:30;53.03;;;28.70;;
70169;SDS011;57543;45.442;9.212;2022-10-16T17:56:33;50.53;;;28.30;;
70169;SDS011;57543;45.442;9.212;2022-10-16T17:59:38;57.72;;;30.92;;
70169;SDS011;57543;45.442;9.212;2022-10-16T18:02:42;62.25;;;32.60;;
70169;SDS011;57543;45.442;9.212;2022-10-16T18:05:46;57.28;;;30.08;;
70169;SDS011;57543;45.442;9.212;2022-10-16T18:08:50;53.92;;;28.90;;
70169;SDS011;57543;45.442;9.212;2022-10-16T18:11:54;60.83;;;31.97;;
70169;SDS011;57543;45.442;9.212;2022-10-16T18:15:02;58.47;;;32.75;;
70169;SDS011;57543;45.442;9.212;2022-10-16T18:18:06;63.63;;;34.58;;
70169;SDS011;57543;45.442;9.212;2022-10-16T18:21:10;65.60;;;35.95;;
70169;SDS011;57543;45.442;9.212;2022-10-16T18:24:16;64.10;;;34.00;;
70169;SDS011;57543;45.442;9.212;2022-10-16T18:27:20;62.23;;;32.53;;
70169;SDS011;57543;45.442;9.212;2022-10-16T18:30:23;59.60;;;31.63;;
70169;SDS011;57543;45.442;9.212;2022-10-16T18:33:27;63.67;;;32.42;;
70169;SDS011;57543;45.442;9.212;2022-10-16T18:36:33;58.97;;;31.55;;
70169;SDS011;57543;45.442;9.212;2022-10-16T18:39:37;60.42;;;31.85;;
70169;SDS011;57543;45.442;9.212;2022-10-16T18:42:41;57.97;;;31.70;;
70169;SDS011;57543;45.442;9.212;2022-10-16T18:45:59;58.17;;;31.30;;
70169;SDS011;57543;45.442;9.212;2022-10-16T18:49:05;55.38;;;30.33;;
70169;SDS011;57543;45.442;9.212;2022-10-16T18:52:09;57.50;;;31.45;;
70169;SDS011;57543;45.442;9.212;2022-10-16T18:55:12;65.65;;;33.25;;
70169;SDS011;57543;45.442;9.212;2022-10-16T18:58:16;61.73;;;32.70;;
70169;SDS011;57543;45.442;9.212;2022-10-16T19:01:21;63.13;;;34.00;;
70169;SDS011;57543;45.442;9.212;2022-10-16T19:04:26;61.13;;;33.42;;
70169;SDS011;57543;45.442;9.212;2022-10-16T19:07:30;58.00;;;30.90;;
70169;SDS011;57543;45.442;9.212;2022-10-16T19:10:35;58.45;;;31.40;;
70169;SDS011;57543;45.442;9.212;2022-10-16T19:13:40;55.90;;;30.93;;
70169;SDS011;57543;45.442;9.212;2022-10-16T19:16:44;57.72;;;30.98;;
70169;SDS011;57543;45.442;9.212;2022-10-16T19:19:48;61.92;;;32.30;;
70169;SDS011;57543;45.442;9.212;2022-10-16T19:22:51;56.58;;;30.25;;
70169;SDS011;57543;45.442;9.212;2022-10-16T19:26:05;64.03;;;32.53;;
70169;SDS011;57543;45.442;9.212;2022-10-16T19:29:11;60.43;;;31.10;;
70169;SDS011;57543;45.442;9.212;2022-10-16T19:32:15;59.67;;;31.17;;
70169;SDS011;57543;45.442;9.212;2022-10-16T19:35:19;63.75;;;33.05;;
70169;SDS011;57543;45.442;9.212;2022-10-16T19:38:24;64.53;;;32.55;;